createdAt,value
2023-02-22T00:00:52.991Z,5.43
2023-02-22T00:03:56.250Z,5.38
2023-02-22T00:07:01.295Z,5.34
2023-02-22T00:10:04.847Z,5.25
2023-02-22T00:13:09.735Z,5.35
2023-02-22T00:16:16.342Z,5.32
2023-02-22T00:19:19.311Z,5.23
2023-02-22T00:22:23.366Z,5.21
2023-02-22T00:25:26.572Z,5.19
2023-02-22T00:28:30.722Z,5.16
2023-02-22T00:31:39.263Z,5.11
2023-02-22T00:34:43.650Z,5.10
2023-02-22T00:37:49.682Z,5.06
2023-02-22T00:40:52.697Z,5.08
2023-02-22T00:43:55.367Z,5.07
2023-02-22T00:46:58.046Z,5.10
2023-02-22T00:50:02.097Z,5.14
2023-02-22T00:53:07.322Z,5.16
2023-02-22T00:56:10.050Z,5.13
2023-02-22T00:59:12.747Z,5.25
2023-02-22T01:02:15.601Z,5.24
2023-02-22T01:05:21.239Z,5.28
2023-02-22T01:08:25.851Z,5.31
2023-02-22T01:11:28.534Z,5.15
2023-02-22T01:14:31.293Z,5.34
2023-02-22T01:17:33.986Z,5.30
2023-02-22T01:20:37.006Z,5.33
2023-02-22T01:23:41.144Z,5.28
2023-02-22T01:26:45.452Z,5.26
2023-02-22T01:29:50.245Z,5.26
2023-02-22T01:32:53.365Z,5.28
2023-02-22T01:35:56.081Z,5.29
2023-02-22T01:39:00.105Z,5.26
2023-02-22T01:42:03.738Z,5.24
2023-02-22T01:45:43.111Z,5.19
2023-02-22T01:48:49.171Z,5.23
2023-02-22T01:51:55.969Z,5.26
2023-02-22T01:55:02.013Z,5.27
2023-02-22T01:58:06.353Z,5.29
2023-02-22T02:01:10.718Z,5.39
2023-02-22T02:04:17.226Z,5.29
2023-02-22T02:07:22.915Z,5.28
2023-02-22T02:10:26.956Z,5.29
2023-02-22T02:13:30.047Z,5.34
2023-02-22T02:16:42.713Z,5.40
2023-02-22T02:19:54.320Z,5.48
2023-02-22T02:23:06.305Z,5.57
2023-02-22T02:26:30.164Z,5.66
2023-02-22T02:30:20.625Z,5.71
2023-02-22T02:33:32.295Z,5.81
2023-02-22T02:36:57.840Z,5.84
2023-02-22T02:40:11.405Z,5.93
2023-02-22T02:43:22.653Z,5.93
2023-02-22T02:46:30.829Z,6.02
2023-02-22T02:49:38.718Z,6.00
2023-02-22T02:52:42.952Z,6.04
2023-02-22T02:55:45.615Z,6.15
2023-02-22T02:58:52.824Z,6.20
2023-02-22T03:02:17.882Z,6.22
2023-02-22T03:05:40.970Z,6.15
2023-02-22T03:08:46.641Z,6.10
2023-02-22T03:12:02.105Z,6.07
2023-02-22T03:15:15.045Z,6.29
2023-02-22T03:18:25.854Z,6.28
2023-02-22T03:21:35.515Z,6.22
2023-02-22T03:24:44.900Z,6.21
2023-02-22T03:27:50.800Z,6.24
2023-02-22T03:30:58.452Z,6.14
2023-02-22T03:34:07.368Z,6.08
2023-02-22T03:37:17.790Z,6.10
2023-02-22T03:40:26.867Z,5.88
2023-02-22T03:43:33.877Z,5.97
2023-02-22T03:46:40.221Z,5.93
2023-02-22T03:49:50.716Z,5.79
2023-02-22T03:52:54.903Z,5.82
2023-02-22T03:56:00.679Z,5.74
2023-02-22T03:59:05.164Z,5.86
2023-02-22T04:02:08.007Z,5.62
2023-02-22T04:05:10.746Z,5.69
2023-02-22T04:08:15.007Z,5.74
2023-02-22T04:11:18.062Z,5.64
2023-02-22T04:14:23.184Z,5.70
2023-02-22T04:17:26.554Z,5.66
2023-02-22T04:20:29.281Z,5.76
2023-02-22T04:23:33.280Z,5.73
2023-02-22T04:26:35.991Z,5.82
2023-02-22T04:29:38.690Z,5.70
2023-02-22T04:32:41.354Z,5.74
2023-02-22T04:35:44.132Z,5.66
2023-02-22T04:38:48.444Z,5.86
2023-02-22T04:41:51.147Z,5.80
2023-02-22T04:44:54.688Z,5.79
2023-02-22T04:47:57.394Z,5.68
2023-02-22T04:51:00.131Z,5.77
2023-02-22T04:54:05.491Z,5.82
2023-02-22T04:57:08.174Z,5.79
2023-02-22T05:00:11.760Z,5.74
2023-02-22T05:03:14.443Z,5.64
2023-02-22T05:06:18.726Z,5.64
2023-02-22T05:09:22.846Z,5.75
2023-02-22T05:12:28.399Z,5.70
2023-02-22T05:15:31.024Z,5.70
2023-02-22T05:18:33.687Z,5.65
2023-02-22T05:21:36.331Z,5.54
2023-02-22T05:24:40.449Z,5.60
2023-02-22T05:27:43.140Z,5.71
2023-02-22T05:30:46.036Z,5.73
2023-02-22T05:33:49.272Z,5.74
2023-02-22T05:36:52.285Z,5.78
2023-02-22T05:39:56.736Z,5.73
2023-02-22T05:43:00.782Z,5.78
2023-02-22T05:46:03.804Z,5.80
2023-02-22T05:49:06.666Z,5.76
2023-02-22T05:52:09.320Z,5.76
2023-02-22T05:55:15.858Z,5.73
2023-02-22T05:58:18.903Z,5.78
2023-02-22T06:01:22.622Z,5.80
2023-02-22T06:04:26.037Z,5.78
2023-02-22T06:07:28.703Z,5.92
2023-02-22T06:10:32.958Z,5.88
2023-02-22T06:13:35.682Z,5.86
2023-02-22T06:16:38.375Z,5.91
2023-02-22T06:19:41.374Z,5.90
2023-02-22T06:22:45.658Z,5.91
2023-02-22T06:25:49.830Z,5.97
2023-02-22T06:28:52.522Z,5.93
2023-02-22T06:31:55.615Z,5.91
2023-02-22T06:34:59.076Z,5.85
2023-02-22T06:38:01.801Z,6.02
2023-02-22T06:41:06.135Z,6.02
2023-02-22T06:44:10.727Z,5.93
2023-02-22T06:47:13.440Z,5.97
2023-02-22T06:50:23.455Z,6.07
2023-02-22T06:53:26.227Z,6.03
2023-02-22T06:56:30.264Z,6.11
2023-02-22T06:59:32.884Z,6.19
2023-02-22T07:02:35.763Z,6.19
2023-02-22T07:05:38.633Z,6.26
2023-02-22T07:08:41.508Z,6.30
2023-02-22T07:11:45.702Z,6.39
2023-02-22T07:14:48.427Z,6.42
2023-02-22T07:17:51.271Z,6.51
2023-02-22T07:20:54.292Z,6.61
2023-02-22T07:23:58.936Z,6.57
2023-02-22T07:27:03.422Z,6.53
2023-02-22T07:30:07.726Z,6.55
2023-02-22T07:33:13.180Z,6.70
2023-02-22T07:36:17.905Z,6.72
2023-02-22T07:39:20.708Z,6.77
2023-02-22T07:42:25.193Z,6.74
2023-02-22T07:45:29.975Z,6.71
2023-02-22T07:48:33.251Z,6.87
2023-02-22T07:51:35.922Z,6.94
2023-02-22T07:54:38.672Z,6.87
2023-02-22T07:57:42.704Z,7.03
2023-02-22T08:00:47.350Z,7.01
2023-02-22T08:03:50.254Z,7.08
2023-02-22T08:06:52.968Z,7.10
2023-02-22T08:09:55.728Z,7.19
2023-02-22T08:13:00.049Z,7.24
2023-02-22T08:16:04.633Z,7.30
2023-02-22T08:19:07.332Z,7.33
2023-02-22T08:22:10.008Z,7.42
2023-02-22T08:25:13.271Z,7.46
2023-02-22T08:28:19.997Z,7.54
2023-02-22T08:31:22.776Z,7.64
2023-02-22T08:34:25.835Z,7.73
2023-02-22T08:37:28.709Z,7.75
2023-02-22T08:40:34.586Z,7.75
2023-02-22T08:43:39.218Z,7.81
2023-02-22T08:46:42.050Z,7.90
2023-02-22T08:49:44.827Z,8.07
2023-02-22T08:52:47.714Z,8.23
2023-02-22T08:55:50.994Z,8.46
2023-02-22T08:58:55.982Z,8.58
2023-02-22T09:01:59.001Z,8.63
2023-02-22T09:05:02.036Z,8.73
2023-02-22T09:08:05.626Z,8.60
2023-02-22T09:11:08.519Z,8.59
2023-02-22T09:14:15.205Z,8.77
2023-02-22T09:17:18.169Z,8.53
2023-02-22T09:20:23.503Z,8.57
2023-02-22T09:23:27.350Z,8.57
2023-02-22T09:26:30.167Z,8.57
2023-02-22T09:29:34.291Z,8.77
2023-02-22T09:32:37.787Z,8.92
2023-02-22T09:35:42.758Z,8.97
2023-02-22T09:38:46.486Z,9.06
2023-02-22T09:41:56.095Z,9.19
2023-02-22T09:45:12.843Z,9.09
2023-02-22T09:48:22.027Z,9.14
2023-02-22T09:51:28.485Z,9.10
2023-02-22T09:54:36.556Z,8.96
2023-02-22T09:57:43.023Z,9.26
2023-02-22T10:00:51.548Z,9.08
2023-02-22T10:04:01.242Z,9.22
2023-02-22T10:07:11.150Z,9.27
2023-02-22T10:10:18.380Z,9.31
2023-02-22T10:13:29.905Z,9.08
2023-02-22T10:16:41.467Z,9.07
2023-02-22T10:19:57.650Z,9.06
2023-02-22T10:23:12.056Z,9.05
2023-02-22T10:26:18.152Z,8.88
2023-02-22T10:29:28.572Z,8.97
2023-02-22T10:32:43.380Z,9.15
2023-02-22T10:35:47.272Z,9.26
2023-02-22T10:38:55.746Z,9.29
2023-02-22T10:42:05.875Z,9.31
2023-02-22T10:45:22.499Z,9.31
2023-02-22T10:48:28.538Z,9.34
2023-02-22T10:51:31.937Z,9.31
2023-02-22T10:54:37.700Z,9.25
2023-02-22T10:57:42.304Z,9.29
2023-02-22T11:00:46.657Z,9.22
2023-02-22T11:04:04.071Z,9.36
2023-02-22T11:07:12.310Z,9.38
2023-02-22T11:10:38.649Z,9.47
2023-02-22T11:13:42.274Z,9.48
2023-02-22T11:16:51.482Z,9.49
2023-02-22T11:19:56.052Z,9.57
2023-02-22T11:23:02.201Z,9.61
2023-02-22T11:26:10.027Z,9.55
2023-02-22T11:29:19.705Z,9.66
2023-02-22T11:32:24.493Z,9.57
2023-02-22T11:35:39.012Z,9.77
2023-02-22T11:38:55.198Z,9.77
2023-02-22T11:41:57.940Z,9.91
2023-02-22T11:45:11.215Z,10.02
2023-02-22T11:48:23.241Z,10.14
2023-02-22T11:51:44.977Z,10.33
2023-02-22T11:55:32.616Z,10.39
2023-02-22T11:58:46.552Z,10.44
2023-02-22T12:01:54.943Z,10.50
2023-02-22T12:05:27.334Z,10.56
2023-02-22T12:08:43.592Z,10.77
2023-02-22T12:11:57.299Z,10.84
2023-02-22T12:15:07.808Z,10.76
2023-02-22T12:18:20.733Z,10.90
2023-02-22T12:21:26.310Z,10.94
2023-02-22T12:24:37.351Z,10.94
2023-02-22T12:27:45.036Z,10.96
2023-02-22T12:30:53.832Z,10.99
2023-02-22T12:34:07.721Z,10.93
2023-02-22T12:37:17.791Z,10.98
2023-02-22T12:40:27.960Z,11.19
2023-02-22T12:43:34.740Z,11.32
2023-02-22T12:46:41.905Z,11.44
2023-02-22T12:49:49.612Z,11.35
2023-02-22T12:52:57.811Z,11.43
2023-02-22T12:56:15.946Z,11.42
2023-02-22T12:59:25.951Z,11.59
2023-02-22T13:02:32.432Z,11.54
2023-02-22T13:05:39.516Z,11.70
2023-02-22T13:08:55.420Z,11.65
2023-02-22T13:12:08.099Z,11.76
2023-02-22T13:15:19.909Z,11.80
2023-02-22T13:18:32.534Z,11.94
2023-02-22T13:21:45.059Z,12.00
2023-02-22T13:25:02.215Z,12.04
2023-02-22T13:28:23.529Z,12.07
2023-02-22T13:31:45.752Z,12.17
2023-02-22T13:35:20.357Z,12.30
2023-02-22T13:38:50.928Z,12.27
2023-02-22T13:42:05.981Z,12.47
2023-02-22T13:45:46.422Z,12.61
2023-02-22T13:49:21.449Z,12.56
2023-02-22T13:52:27.545Z,12.62
2023-02-22T13:55:34.571Z,12.55
2023-02-22T13:58:49.024Z,12.55
2023-02-22T14:01:54.940Z,12.58
2023-02-22T14:04:57.876Z,12.60
2023-02-22T14:08:00.585Z,12.58
2023-02-22T14:11:05.886Z,12.66
2023-02-22T14:14:17.787Z,12.67
2023-02-22T14:17:30.105Z,12.76
2023-02-22T14:20:36.243Z,12.76
2023-02-22T14:23:40.815Z,12.73
2023-02-22T14:26:56.336Z,12.84
2023-02-22T14:30:00.611Z,12.96
2023-02-22T14:33:25.273Z,12.98
2023-02-22T14:36:34.301Z,12.92
2023-02-22T14:39:41.517Z,13.07
2023-02-22T14:42:49.995Z,12.92
2023-02-22T14:45:55.921Z,12.78
2023-02-22T14:49:04.224Z,12.92
2023-02-22T14:52:19.058Z,12.83
2023-02-22T14:55:24.821Z,12.86
2023-02-22T14:58:35.394Z,12.84
2023-02-22T15:01:50.906Z,12.76
2023-02-22T15:05:00.404Z,12.81
2023-02-22T15:08:07.611Z,12.77
2023-02-22T15:11:22.072Z,12.78
2023-02-22T15:14:27.138Z,12.82
2023-02-22T15:17:29.893Z,12.83
2023-02-22T15:20:36.209Z,12.84
2023-02-22T15:23:45.150Z,12.86
2023-02-22T15:27:00.616Z,12.86
2023-02-22T15:30:07.578Z,12.84
2023-02-22T15:33:16.377Z,12.79
2023-02-22T15:36:23.049Z,12.73
2023-02-22T15:39:29.508Z,12.71
2023-02-22T15:42:32.231Z,12.69
2023-02-22T15:45:35.322Z,12.46
2023-02-22T15:48:41.301Z,12.61
2023-02-22T15:51:49.075Z,12.52
2023-02-22T15:54:53.519Z,12.42
2023-02-22T15:57:59.088Z,12.37
2023-02-22T16:01:03.719Z,12.14
2023-02-22T16:04:06.935Z,12.24
2023-02-22T16:07:17.752Z,12.17
2023-02-22T16:10:24.501Z,12.11
2023-02-22T16:13:36.093Z,11.97
2023-02-22T16:16:41.591Z,11.93
2023-02-22T16:19:45.265Z,11.87
2023-02-22T16:22:51.036Z,11.82
2023-02-22T16:26:07.055Z,11.91
2023-02-22T16:29:11.095Z,11.81
2023-02-22T16:32:15.518Z,11.68
2023-02-22T16:35:19.015Z,11.71
2023-02-22T16:38:23.200Z,11.66
2023-02-22T16:41:26.151Z,11.63
2023-02-22T16:44:29.743Z,11.55
2023-02-22T16:47:32.430Z,11.41
2023-02-22T16:50:35.129Z,11.37
2023-02-22T16:53:39.315Z,11.32
2023-02-22T16:56:42.456Z,11.31
2023-02-22T16:59:47.757Z,11.36
2023-02-22T17:02:50.528Z,11.33
2023-02-22T17:05:53.835Z,11.13
2023-02-22T17:08:57.935Z,11.23
2023-02-22T17:12:00.991Z,11.20
2023-02-22T17:15:04.512Z,11.12
2023-02-22T17:18:16.336Z,11.00
2023-02-22T17:21:19.262Z,10.91
2023-02-22T17:24:29.178Z,10.87
2023-02-22T17:27:32.407Z,10.78
2023-02-22T17:30:36.323Z,10.64
2023-02-22T17:33:39.060Z,10.58
2023-02-22T17:36:42.072Z,10.48
2023-02-22T17:39:46.570Z,10.38
2023-02-22T17:42:54.587Z,10.27
2023-02-22T17:45:58.179Z,10.18
2023-02-22T17:49:02.139Z,10.11
2023-02-22T17:52:07.414Z,10.01
2023-02-22T17:55:13.122Z,9.95
2023-02-22T17:58:16.583Z,9.90
2023-02-22T18:01:27.344Z,9.84
2023-02-22T18:04:30.048Z,9.81
2023-02-22T18:07:32.809Z,9.74
2023-02-22T18:10:37.624Z,9.73
2023-02-22T18:13:40.574Z,9.73
2023-02-22T18:16:43.280Z,9.65
2023-02-22T18:19:46.065Z,9.59
2023-02-22T18:22:48.975Z,9.58
2023-02-22T18:26:09.071Z,9.54
2023-02-22T18:29:13.014Z,9.49
2023-02-22T18:32:15.844Z,9.46
2023-02-22T18:35:18.654Z,9.43
2023-02-22T18:38:24.229Z,9.40
2023-02-22T18:41:28.848Z,9.40
2023-02-22T18:44:32.386Z,9.40
2023-02-22T18:47:40.886Z,9.42
2023-02-22T18:50:43.558Z,9.42
2023-02-22T18:53:47.731Z,9.42
2023-02-22T18:56:51.896Z,9.31
2023-02-22T18:59:54.992Z,9.32
2023-02-22T19:02:58.308Z,9.28
2023-02-22T19:06:02.993Z,9.27
2023-02-22T19:09:08.678Z,9.00
2023-02-22T19:12:12.836Z,9.12
2023-02-22T19:15:15.944Z,9.13
2023-02-22T19:18:20.612Z,9.18
2023-02-22T19:21:24.170Z,9.19
2023-02-22T19:24:26.838Z,9.14
2023-02-22T19:27:31.370Z,9.16
2023-02-22T19:30:34.081Z,9.13
2023-02-22T19:33:37.034Z,9.10
2023-02-22T19:36:41.313Z,9.08
2023-02-22T19:39:44.232Z,9.03
2023-02-22T19:42:48.448Z,9.04
2023-02-22T19:45:51.216Z,9.05
2023-02-22T19:48:55.286Z,9.07
2023-02-22T19:51:58.314Z,9.10
2023-02-22T19:55:01.173Z,9.10
2023-02-22T19:58:05.258Z,9.08
2023-02-22T20:01:14.331Z,9.11
2023-02-22T20:04:21.319Z,9.10
2023-02-22T20:07:24.233Z,9.08
2023-02-22T20:10:27.078Z,9.00
2023-02-22T20:13:31.898Z,9.01
2023-02-22T20:16:35.654Z,9.03
2023-02-22T20:19:40.681Z,8.98
2023-02-22T20:22:44.514Z,8.98
2023-02-22T20:25:53.685Z,8.83
2023-02-22T20:28:58.417Z,8.97
2023-02-22T20:32:02.862Z,8.98
2023-02-22T20:35:07.114Z,8.95
2023-02-22T20:38:11.572Z,8.95
2023-02-22T20:41:16.974Z,8.96
2023-02-22T20:44:22.159Z,8.94
2023-02-22T20:47:25.004Z,8.96
2023-02-22T20:50:27.685Z,8.99
2023-02-22T20:53:30.394Z,9.00
2023-02-22T20:56:34.166Z,9.03
2023-02-22T20:59:38.206Z,9.02
2023-02-22T21:02:40.911Z,9.02
2023-02-22T21:05:44.401Z,9.02
2023-02-22T21:08:51.291Z,9.01
2023-02-22T21:11:54.024Z,8.63
2023-02-22T21:14:58.084Z,8.97
2023-02-22T21:18:02.202Z,8.95
2023-02-22T21:21:10.089Z,8.95
2023-02-22T21:24:13.700Z,8.82
2023-02-22T21:27:17.045Z,8.87
2023-02-22T21:30:21.378Z,8.86
2023-02-22T21:33:24.036Z,8.83
2023-02-22T21:36:27.797Z,8.79
2023-02-22T21:39:30.476Z,8.77
2023-02-22T21:42:33.287Z,8.75
2023-02-22T21:45:37.499Z,8.74
2023-02-22T21:48:44.873Z,8.75
2023-02-22T21:51:47.555Z,8.72
2023-02-22T21:54:50.259Z,8.71
2023-02-22T21:57:53.027Z,8.71
2023-02-22T22:00:59.434Z,8.59
2023-02-22T22:04:05.103Z,8.43
2023-02-22T22:07:08.106Z,8.42
2023-02-22T22:10:17.014Z,8.36
2023-02-22T22:13:19.968Z,8.32
2023-02-22T22:16:26.384Z,8.29
2023-02-22T22:19:31.714Z,8.26
2023-02-22T22:22:34.422Z,8.24
2023-02-22T22:25:38.145Z,8.25
2023-02-22T22:28:43.779Z,8.22
2023-02-22T22:31:48.698Z,8.11
2023-02-22T22:34:51.805Z,8.02
2023-02-22T22:37:54.562Z,7.99
2023-02-22T22:41:01.042Z,7.93
2023-02-22T22:44:06.159Z,7.87
2023-02-22T22:47:12.207Z,7.86
2023-02-22T22:50:15.635Z,7.74
2023-02-22T22:53:18.725Z,7.82
2023-02-22T22:56:26.789Z,7.90
2023-02-22T22:59:29.548Z,8.02
2023-02-22T23:02:33.672Z,8.13
2023-02-22T23:05:38.238Z,8.22
2023-02-22T23:08:43.933Z,8.36
2023-02-22T23:11:50.716Z,8.45
2023-02-22T23:14:55.212Z,8.42
2023-02-22T23:17:59.454Z,8.41
2023-02-22T23:21:05.504Z,8.45
2023-02-22T23:24:08.495Z,8.50
2023-02-22T23:27:12.288Z,8.49
2023-02-22T23:30:18.622Z,8.58
2023-02-22T23:33:22.998Z,8.56
2023-02-22T23:36:26.679Z,8.54
2023-02-22T23:39:29.444Z,8.56
2023-02-22T23:42:32.113Z,8.37
2023-02-22T23:45:38.565Z,8.52
2023-02-22T23:48:46.689Z,8.48
2023-02-22T23:51:49.801Z,8.50
2023-02-22T23:54:53.946Z,8.49
2023-02-22T23:57:59.415Z,8.51
